Santa Ana, Bolivia
Current Conditions -  °F | °C
As of 7:00 PM on Saturday 24 Jan 2015 (Local Time) from SLTR Reporting Station
Broken Clouds Broken Clouds  
Wind Chill: 82°   Ceiling: 20000
Heat Index: 89°   Visibility: 6mi
Dew Point: 75°   Wind: 3mph
Humidity: 79%   Direction: 320°NW
Pressure: 29.77"   Gusts: NA
Location:  13.77°S, 65.56°W
Report Text: SLTR 242300Z 32003KT 9999 FEW020 BKN200 28/24 Q1008
Loading
Personal Weather Stations






























Interactive Weather Map New forecast layout! Learn more

10-Day Weather Forecast

Advertisements
Track Severe Weather on mobile